createdAt,value
2023-09-23T00:00:01.434Z,1004.484
2023-09-23T00:07:01.390Z,1004.514
2023-09-23T00:14:02.075Z,1004.815
2023-09-23T00:21:01.619Z,1004.815
2023-09-23T00:28:01.582Z,1004.72
2023-09-23T00:35:01.905Z,1004.868
2023-09-23T00:42:01.821Z,1004.984
2023-09-23T00:49:01.379Z,1004.984
2023-09-23T00:56:01.709Z,1005.121
2023-09-23T01:00:02.131Z,1005.121
2023-09-23T01:07:01.892Z,1005.222
2023-09-23T01:14:02.112Z,1005.289
2023-09-23T01:21:01.909Z,1005.146
2023-09-23T01:28:02.017Z,1005.146
2023-09-23T01:35:02.068Z,1005.407
2023-09-23T01:42:01.926Z,1005.521
2023-09-23T01:49:01.939Z,1005.521
2023-09-23T01:56:01.971Z,1005.604
2023-09-23T02:00:01.478Z,1005.934
2023-09-23T02:07:01.516Z,1005.934
2023-09-23T02:14:01.516Z,1006.13
2023-09-23T02:21:01.659Z,1005.936
2023-09-23T02:28:01.982Z,1005.936
2023-09-23T02:35:01.951Z,1006.054
2023-09-23T02:42:02.085Z,1006.038
2023-09-23T02:49:02.182Z,1006.261
2023-09-23T02:56:02.436Z,1006.261
2023-09-23T03:00:01.869Z,1006.342
2023-09-23T03:07:01.835Z,1006.5
2023-09-23T03:14:01.411Z,1006.5
2023-09-23T03:21:01.982Z,1006.482
2023-09-23T03:28:02.357Z,1006.532
2023-09-23T03:35:01.946Z,1006.532
2023-09-23T03:42:01.630Z,1006.457
2023-09-23T03:49:01.561Z,1006.42
2023-09-23T03:56:01.889Z,1006.571
2023-09-23T04:00:02.347Z,1006.571
2023-09-23T04:07:01.906Z,1006.581
2023-09-23T04:14:02.393Z,1006.581
2023-09-23T04:21:02.171Z,1006.587
2023-09-23T04:28:01.462Z,1007.207
2023-09-23T04:35:01.875Z,1007.113
2023-09-23T04:42:01.508Z,1007.113
2023-09-23T04:49:02.376Z,1007.274
2023-09-23T04:56:01.812Z,1007.195
2023-09-23T05:00:02.180Z,1007.195
2023-09-23T05:07:01.515Z,1007.664
2023-09-23T05:14:02.367Z,1007.769
2023-09-23T05:21:01.896Z,1007.769
2023-09-23T05:28:01.735Z,1007.427
2023-09-23T05:35:01.522Z,1008.157
2023-09-23T05:42:01.581Z,1007.969
2023-09-23T05:49:02.270Z,1007.969
2023-09-23T05:56:01.787Z,1008.087
2023-09-23T06:00:02.180Z,1008.087
2023-09-23T06:07:01.607Z,1008.688
2023-09-23T06:14:01.967Z,1008.635
2023-09-23T06:21:02.283Z,1008.776
2023-09-23T06:28:02.006Z,1008.776
2023-09-23T06:35:01.471Z,1009.268
2023-09-23T06:42:01.884Z,1009.437
2023-09-23T06:49:02.022Z,1009.437
2023-09-23T06:56:01.918Z,1009.206
2023-09-23T07:00:02.295Z,1009.248
2023-09-23T07:07:01.779Z,1009.248
2023-09-23T07:14:01.437Z,1009.691
2023-09-23T07:21:01.380Z,1009.599
2023-09-23T07:28:02.023Z,1009.599
2023-09-23T07:35:02.234Z,1010.074
2023-09-23T07:42:02.314Z,1009.862
2023-09-23T07:49:03.790Z,1010.016
2023-09-23T07:56:01.645Z,1010.016
2023-09-23T08:00:02.047Z,1010.29
2023-09-23T08:07:01.764Z,1010.309
2023-09-23T08:14:01.765Z,1010.309
2023-09-23T08:21:01.442Z,1010.018
2023-09-23T08:28:01.798Z,1010.348
2023-09-23T08:35:01.936Z,1010.348
2023-09-23T08:42:01.448Z,1010.639
2023-09-23T08:49:01.398Z,1010.995
2023-09-23T08:56:01.472Z,1010.735
2023-09-23T09:00:01.888Z,1010.735
2023-09-23T09:07:02.033Z,1011.133
2023-09-23T09:14:02.288Z,1011.133
2023-09-23T09:21:01.520Z,1010.882
2023-09-23T09:28:02.197Z,1010.952
2023-09-23T09:35:02.047Z,1011.171
2023-09-23T09:42:01.862Z,1011.171
2023-09-23T09:49:01.787Z,1011.289
2023-09-23T09:56:01.964Z,1011.328
2023-09-23T10:00:01.404Z,1011.328
2023-09-23T10:07:01.642Z,1011.611
2023-09-23T10:14:02.005Z,1012.029
2023-09-23T10:21:02.204Z,1012.029
2023-09-23T10:28:01.737Z,1011.464
2023-09-23T10:35:01.841Z,1011.695
2023-09-23T10:42:02.287Z,1012.109
2023-09-23T10:49:01.876Z,1012.109
2023-09-23T10:56:01.584Z,1011.9
2023-09-23T11:00:01.961Z,1011.9
2023-09-23T11:07:02.014Z,1011.883
2023-09-23T11:14:01.463Z,1011.969
2023-09-23T11:21:02.245Z,1012.463
2023-09-23T11:28:01.897Z,1012.463
2023-09-23T11:35:02.252Z,1012.414
2023-09-23T11:42:02.274Z,1012.108
2023-09-23T11:49:02.196Z,1012.108
2023-09-23T11:56:01.548Z,1012.333
2023-09-23T12:00:01.914Z,1012.514
2023-09-23T12:07:01.640Z,1012.514
2023-09-23T12:14:02.236Z,1012.912
2023-09-23T12:21:01.703Z,1012.756
2023-09-23T12:28:01.802Z,1012.797
2023-09-23T12:35:02.065Z,1012.797
2023-09-23T12:42:02.274Z,1013.054
2023-09-23T12:49:01.533Z,1012.578
2023-09-23T12:56:02.263Z,1012.578
2023-09-23T13:00:01.778Z,1013.308
2023-09-23T13:07:01.871Z,1013.301
2023-09-23T13:14:02.227Z,1013.301
2023-09-23T13:21:01.815Z,1013.158
2023-09-23T13:28:02.046Z,1012.638
2023-09-23T13:35:01.851Z,1012.638
2023-09-23T13:42:02.253Z,1012.989
2023-09-23T13:49:02.184Z,1012.747
2023-09-23T13:56:01.786Z,1013.056
2023-09-23T14:00:02.354Z,1013.056
2023-09-23T14:07:02.255Z,1013.201
2023-09-23T14:14:02.307Z,1013.201
2023-09-23T14:21:02.256Z,1013.21
2023-09-23T14:28:02.271Z,1013.597
2023-09-23T14:35:01.756Z,1013.258
2023-09-23T14:42:01.397Z,1013.258
2023-09-23T14:49:01.650Z,1013.771
2023-09-23T14:56:01.915Z,1013.424
2023-09-23T15:00:02.336Z,1013.424
2023-09-23T15:07:01.680Z,1013.636
2023-09-23T15:14:02.043Z,1014.009
2023-09-23T15:21:02.163Z,1014.009
2023-09-23T15:28:01.733Z,1013.884
2023-09-23T15:35:01.899Z,1014.16
2023-09-23T15:42:02.215Z,1014.117
2023-09-23T15:49:01.335Z,1014.117
2023-09-23T15:56:02.098Z,1014.569
2023-09-23T16:00:01.524Z,1014.569
2023-09-23T16:07:01.668Z,1014.802
2023-09-23T16:14:01.679Z,1014.905
2023-09-23T16:21:02.278Z,1015.197
2023-09-23T16:28:01.953Z,1015.197
2023-09-23T16:35:02.165Z,1015.122
2023-09-23T16:42:01.917Z,1015.2
2023-09-23T16:49:01.791Z,1015.2
2023-09-23T16:56:01.528Z,1015.539
2023-09-23T17:00:02.019Z,1015.187
2023-09-23T17:07:02.174Z,1015.187
2023-09-23T17:14:01.617Z,1015.379
2023-09-23T17:21:01.988Z,1015.609
2023-09-23T17:28:01.872Z,1016.061
2023-09-23T17:35:01.531Z,1016.061
2023-09-23T17:42:01.476Z,1015.824
2023-09-23T17:49:02.222Z,1016.044
2023-09-23T17:56:02.181Z,1016.044
2023-09-23T18:00:01.559Z,1016.132
2023-09-23T18:07:02.107Z,1015.946
2023-09-23T18:14:02.133Z,1015.946
2023-09-23T18:21:02.213Z,1016.342
2023-09-23T18:28:01.435Z,1016.45
2023-09-23T18:35:02.024Z,1016.45
2023-09-23T18:42:01.398Z,1016.887
2023-09-23T18:49:01.702Z,1016.898
2023-09-23T18:56:01.671Z,1017.395
2023-09-23T19:00:02.022Z,1017.395
2023-09-23T19:07:02.318Z,1017.122
2023-09-23T19:14:01.826Z,1017.122
2023-09-23T19:21:02.276Z,1017.355
2023-09-23T19:28:02.112Z,1017.243
2023-09-23T19:35:01.957Z,1017.377
2023-09-23T19:42:02.242Z,1017.377
2023-09-23T19:49:01.763Z,1017.867
2023-09-23T19:56:01.740Z,1018.124
2023-09-23T20:00:02.097Z,1018.124
2023-09-23T20:07:02.328Z,1017.759
2023-09-23T20:14:01.785Z,1017.853
2023-09-23T20:21:02.169Z,1017.853
2023-09-23T20:28:01.663Z,1017.878
2023-09-23T20:35:01.635Z,1018.164
2023-09-23T20:42:01.853Z,1018.281
2023-09-23T20:49:01.323Z,1018.281
2023-09-23T20:56:01.849Z,1018.341
2023-09-23T21:00:02.223Z,1018.341
2023-09-23T21:07:02.198Z,1018.786
2023-09-23T21:14:01.614Z,1018.973
2023-09-23T21:21:01.608Z,1018.967
2023-09-23T21:28:01.596Z,1018.967
2023-09-23T21:35:01.980Z,1018.924
2023-09-23T21:42:01.677Z,1019.046
2023-09-23T21:49:02.201Z,1019.046
2023-09-23T21:56:02.196Z,1019.079
2023-09-23T22:00:01.640Z,1019.171
2023-09-23T22:07:01.326Z,1019.171
2023-09-23T22:14:01.691Z,1019.171
2023-09-23T22:21:01.389Z,1018.899
2023-09-23T22:28:01.898Z,1018.899
2023-09-23T22:35:02.060Z,1019.067
2023-09-23T22:42:02.126Z,1019.27
2023-09-23T22:49:01.908Z,1019.27
2023-09-23T22:56:02.016Z,1019.266
2023-09-23T23:00:01.347Z,1019.266
2023-09-23T23:07:01.615Z,1019.549
2023-09-23T23:14:02.178Z,1019.664
2023-09-23T23:21:02.045Z,1019.683
2023-09-23T23:28:01.916Z,1019.683
2023-09-23T23:35:01.701Z,1019.398
2023-09-23T23:42:02.114Z,1019.398
2023-09-23T23:49:02.224Z,1019.79
2023-09-23T23:56:01.683Z,1020.123
